メインページ
METAR-TAF:

METAR-TAF

空港 :

Penn Yan Airport

Penn Yan, ニューヨーク, アメリカ合衆国

緯度: 42-38-35N, 経度: 077-02-58W, 海抜: 275m

現時点の気象観測

当レポートは20分前の18:53(UTC)に作成
西/南西の風 9kt
気温 32°C
湿度 63%
気圧 1012 hPa
視程: 16.1km
高度4100ftの雲はほとんどない
高度6000ftの雲は散在している
高度7500ftの千切れ雲あり

METAR: KPEO 191853Z AUTO 25009KT 10SM FEW041 SCT060 BKN075 32/24 A2988 RMK AO2 SLP107 T03170239

時間: 15:13 (19:13 UTC)


TAF: 見つかりません

4,000以上の空港の気象観測と天気予報(METAR報とTAF報)

利用可能な観測所は地図上に黄色い丸と赤い丸で示す。

丸の上にカーソルを重ねると観測所名を参照できる。

次にクリックすると気象観測と天気予報を参照できる。

マップの切り替え:黒色「×」印の緑ボタンをクリックして拡大、「-」印の緑ボタンをクリックして縮小、緑色の三角印をクリックして隣りの地図に切り替え


METAR-TAF: